createdAt,value
2022-09-02T00:01:29.822Z,0.90
2022-09-02T00:04:05.533Z,1.00
2022-09-02T00:06:32.851Z,1.10
2022-09-02T00:09:00.222Z,1.15
2022-09-02T00:11:30.098Z,1.00
2022-09-02T00:13:57.250Z,1.15
2022-09-02T00:16:25.167Z,1.10
2022-09-02T00:18:53.545Z,1.15
2022-09-02T00:21:21.206Z,1.60
2022-09-02T00:23:48.721Z,1.00
2022-09-02T00:26:15.592Z,1.02
2022-09-02T00:28:49.001Z,1.00
2022-09-02T00:31:20.891Z,1.30
2022-09-02T00:33:48.096Z,1.10
2022-09-02T00:36:14.800Z,0.90
2022-09-02T00:38:41.545Z,1.20
2022-09-02T00:41:10.558Z,0.85
2022-09-02T00:43:40.551Z,1.10
2022-09-02T00:46:07.779Z,1.10
2022-09-02T00:48:37.189Z,1.05
2022-09-02T00:51:04.179Z,1.10
2022-09-02T00:53:33.607Z,1.00
2022-09-02T00:56:02.119Z,1.17
2022-09-02T00:58:34.826Z,1.00
2022-09-02T01:03:30.706Z,1.10
2022-09-02T01:05:59.256Z,0.90
2022-09-02T01:08:32.633Z,1.10
2022-09-02T01:10:59.911Z,1.25
2022-09-02T01:13:29.370Z,1.13
2022-09-02T01:16:02.420Z,0.98
2022-09-02T01:18:30.927Z,1.20
2022-09-02T01:20:59.967Z,0.95
2022-09-02T01:23:29.084Z,1.10
2022-09-02T01:25:59.124Z,1.10
2022-09-02T01:28:26.165Z,1.10
2022-09-02T01:30:55.071Z,1.30
2022-09-02T01:33:25.242Z,1.42
2022-09-02T01:35:53.059Z,1.00
2022-09-02T01:38:20.302Z,1.00
2022-09-02T01:40:47.181Z,1.20
2022-09-02T01:43:17.941Z,1.00
2022-09-02T01:45:48.885Z,1.13
2022-09-02T01:48:21.569Z,1.30
2022-09-02T01:50:53.501Z,0.95
2022-09-02T01:53:20.528Z,1.00
2022-09-02T01:55:47.449Z,1.00
2022-09-02T01:58:14.411Z,1.17
2022-09-02T02:00:41.309Z,1.10
2022-09-02T02:03:08.058Z,1.27
2022-09-02T02:05:35.138Z,1.00
2022-09-02T02:08:03.331Z,0.93
2022-09-02T02:10:30.803Z,0.90
2022-09-02T02:12:57.577Z,0.85
2022-09-02T02:17:50.471Z,1.13
2022-09-02T02:20:19.235Z,0.90
2022-09-02T02:22:46.580Z,1.10
2022-09-02T02:25:15.203Z,0.90
2022-09-02T02:27:43.656Z,0.93
2022-09-02T02:30:13.196Z,0.88
2022-09-02T02:32:40.280Z,1.00
2022-09-02T02:35:07.795Z,1.10
2022-09-02T02:37:35.102Z,1.20
2022-09-02T02:40:01.954Z,1.17
2022-09-02T02:42:29.806Z,1.00
2022-09-02T02:44:56.517Z,1.15
2022-09-02T02:47:23.198Z,1.13
2022-09-02T02:49:50.038Z,1.20
2022-09-02T02:52:16.900Z,1.08
2022-09-02T02:54:43.658Z,0.90
2022-09-02T02:57:11.217Z,0.93
2022-09-02T02:59:38.106Z,1.10
2022-09-02T03:02:07.061Z,1.35
2022-09-02T03:04:35.750Z,0.90
2022-09-02T03:07:02.994Z,1.13
2022-09-02T03:09:31.263Z,1.02
2022-09-02T03:11:58.372Z,1.10
2022-09-02T03:14:26.144Z,1.08
2022-09-02T03:16:53.105Z,1.10
2022-09-02T03:19:19.968Z,1.10
2022-09-02T03:21:46.682Z,1.20
2022-09-02T03:24:13.393Z,1.00
2022-09-02T03:26:41.890Z,1.08
2022-09-02T03:29:10.511Z,1.10
2022-09-02T03:31:38.450Z,1.00
2022-09-02T03:34:06.888Z,1.10
2022-09-02T03:36:38.783Z,1.10
2022-09-02T03:39:09.763Z,1.10
2022-09-02T03:41:37.794Z,1.20
2022-09-02T03:44:05.766Z,1.13
2022-09-02T03:46:32.644Z,1.08
2022-09-02T03:48:59.400Z,1.20
2022-09-02T03:51:27.115Z,1.10
2022-09-02T03:53:54.012Z,1.20
2022-09-02T03:56:21.395Z,1.20
2022-09-02T03:58:50.291Z,1.40
2022-09-02T04:01:23.456Z,1.20
2022-09-02T04:03:51.411Z,1.00
2022-09-02T04:06:20.918Z,1.15
2022-09-02T04:08:49.443Z,1.20
2022-09-02T04:11:18.739Z,1.20
2022-09-02T04:13:49.610Z,1.20
2022-09-02T04:16:29.040Z,1.25
2022-09-02T04:19:01.824Z,1.10
2022-09-02T04:21:32.691Z,1.20
2022-09-02T04:23:59.573Z,1.15
2022-09-02T04:26:27.535Z,1.20
2022-09-02T04:28:56.447Z,1.30
2022-09-02T04:31:25.751Z,1.20
2022-09-02T04:33:54.150Z,1.05
2022-09-02T04:36:22.345Z,1.20
2022-09-02T04:38:53.114Z,1.20
2022-09-02T04:41:27.908Z,1.02
2022-09-02T04:43:59.354Z,1.10
2022-09-02T04:49:04.459Z,1.10
2022-09-02T04:51:32.843Z,1.30
2022-09-02T04:54:01.437Z,1.23
2022-09-02T04:56:32.100Z,1.20
2022-09-02T04:59:00.505Z,1.08
2022-09-02T05:01:32.468Z,1.10
2022-09-02T05:04:07.234Z,1.10
2022-09-02T05:06:40.649Z,1.02
2022-09-02T05:09:13.472Z,1.20
2022-09-02T05:11:40.280Z,1.10
2022-09-02T05:14:07.431Z,1.17
2022-09-02T05:16:39.917Z,1.38
2022-09-02T05:19:11.778Z,1.20
2022-09-02T05:21:44.758Z,1.20
2022-09-02T05:24:17.228Z,1.38
2022-09-02T05:26:44.762Z,1.10
2022-09-02T05:29:14.251Z,1.23
2022-09-02T05:31:42.346Z,1.10
2022-09-02T05:34:13.975Z,1.30
2022-09-02T05:36:41.493Z,1.42
2022-09-02T05:39:09.361Z,1.33
2022-09-02T05:41:37.540Z,1.10
2022-09-02T05:44:06.806Z,1.13
2022-09-02T05:46:35.754Z,1.27
2022-09-02T05:49:12.427Z,1.38
2022-09-02T05:51:55.660Z,1.33
2022-09-02T05:54:31.894Z,1.48
2022-09-02T05:57:09.141Z,1.20
2022-09-02T05:59:42.100Z,1.58
2022-09-02T06:02:12.994Z,1.60
2022-09-02T06:04:42.058Z,1.40
2022-09-02T06:07:11.782Z,1.40
2022-09-02T06:09:41.991Z,1.63
2022-09-02T06:12:08.846Z,1.33
2022-09-02T06:14:37.959Z,1.40
2022-09-02T06:17:05.700Z,1.35
2022-09-02T06:19:42.046Z,1.48
2022-09-02T06:22:11.408Z,1.40
2022-09-02T06:24:38.664Z,1.58
2022-09-02T06:27:10.122Z,1.67
2022-09-02T06:29:39.432Z,1.58
2022-09-02T06:32:08.313Z,1.52
2022-09-02T06:34:35.179Z,1.30
2022-09-02T06:37:02.963Z,1.60
2022-09-02T06:39:31.644Z,1.30
2022-09-02T06:41:59.019Z,1.20
2022-09-02T06:44:29.177Z,1.30
2022-09-02T06:47:00.023Z,1.30
2022-09-02T06:49:28.703Z,1.35
2022-09-02T06:51:57.451Z,1.30
2022-09-02T06:54:29.761Z,1.30
2022-09-02T06:57:06.530Z,1.58
2022-09-02T06:59:36.204Z,1.27
2022-09-02T07:02:03.865Z,1.40
2022-09-02T07:04:52.184Z,1.15
2022-09-02T07:07:22.174Z,1.42
2022-09-02T07:12:22.583Z,1.50
2022-09-02T07:15:11.323Z,1.48
2022-09-02T07:17:39.783Z,1.55
2022-09-02T07:20:14.357Z,1.50
2022-09-02T07:25:22.610Z,1.38
2022-09-02T07:27:51.506Z,1.60
2022-09-02T07:30:19.066Z,1.30
2022-09-02T07:32:48.380Z,1.23
2022-09-02T07:35:16.737Z,1.40
2022-09-02T07:37:44.749Z,1.33
2022-09-02T07:40:14.244Z,1.30
2022-09-02T07:42:42.559Z,1.30
2022-09-02T07:45:10.810Z,1.63
2022-09-02T07:47:39.941Z,1.30
2022-09-02T07:50:19.523Z,1.20
2022-09-02T07:52:53.035Z,1.27
2022-09-02T07:55:21.748Z,1.50
2022-09-02T07:57:49.911Z,1.40
2022-09-02T08:00:18.126Z,1.42
2022-09-02T08:02:48.145Z,1.65
2022-09-02T08:05:22.012Z,1.23
2022-09-02T08:07:48.998Z,1.60
2022-09-02T08:10:16.678Z,1.80
2022-09-02T08:12:44.851Z,1.40
2022-09-02T08:15:13.779Z,2.20
2022-09-02T08:17:41.092Z,1.98
2022-09-02T08:20:12.437Z,1.35
2022-09-02T08:22:40.209Z,1.40
2022-09-02T08:25:08.055Z,1.58
2022-09-02T08:27:35.545Z,1.40
2022-09-02T08:30:02.469Z,1.50
2022-09-02T08:32:30.798Z,1.38
2022-09-02T08:34:58.299Z,1.60
2022-09-02T08:37:25.015Z,1.70
2022-09-02T08:39:51.717Z,1.40
2022-09-02T08:42:31.386Z,1.50
2022-09-02T08:45:18.147Z,1.50
2022-09-02T08:47:53.955Z,1.52
2022-09-02T08:50:21.475Z,1.73
2022-09-02T08:53:26.831Z,1.48
2022-09-02T08:55:56.715Z,1.85
2022-09-02T08:58:28.189Z,1.70
2022-09-02T09:01:15.163Z,1.60
2022-09-02T09:04:07.167Z,1.80
2022-09-02T09:07:02.943Z,1.52
2022-09-02T09:10:06.942Z,1.75
2022-09-02T09:12:56.135Z,1.70
2022-09-02T09:15:32.116Z,1.80
2022-09-02T09:18:02.890Z,1.90
2022-09-02T09:20:32.928Z,1.92
2022-09-02T09:23:24.273Z,1.70
2022-09-02T09:28:21.010Z,1.73
2022-09-02T09:30:47.878Z,1.80
2022-09-02T09:33:18.057Z,1.80
2022-09-02T09:35:53.652Z,1.52
2022-09-02T09:38:32.046Z,1.77
2022-09-02T09:41:18.175Z,1.90
2022-09-02T09:43:45.613Z,1.70
2022-09-02T09:46:32.094Z,1.90
2022-09-02T09:48:58.831Z,2.13
2022-09-02T09:51:25.992Z,1.95
2022-09-02T09:53:52.891Z,1.95
2022-09-02T09:56:27.099Z,1.73
2022-09-02T09:58:54.147Z,2.00
2022-09-02T10:01:23.816Z,1.98
2022-09-02T10:03:55.573Z,2.00
2022-09-02T10:06:44.432Z,2.13
2022-09-02T10:09:20.079Z,1.65
2022-09-02T10:11:59.123Z,2.05
2022-09-02T10:14:33.217Z,1.77
2022-09-02T10:17:10.696Z,1.98
2022-09-02T10:19:47.933Z,2.08
2022-09-02T10:22:59.450Z,1.98
2022-09-02T10:25:57.307Z,2.00
2022-09-02T10:28:29.418Z,1.92
2022-09-02T10:31:23.535Z,1.90
2022-09-02T10:34:06.571Z,1.90
2022-09-02T10:36:48.280Z,2.42
2022-09-02T10:39:42.377Z,2.28
2022-09-02T10:42:43.180Z,1.77
2022-09-02T10:45:34.335Z,1.80
2022-09-02T10:48:32.260Z,2.38
2022-09-02T10:51:03.445Z,2.10
2022-09-02T10:53:50.267Z,2.10
2022-09-02T10:56:24.253Z,2.00
2022-09-02T10:59:03.175Z,2.05
2022-09-02T11:01:48.817Z,2.05
2022-09-02T11:04:37.772Z,1.83
2022-09-02T11:07:06.720Z,2.10
2022-09-02T11:09:38.489Z,2.20
2022-09-02T11:12:18.442Z,2.10
2022-09-02T11:14:57.933Z,2.08
2022-09-02T11:17:30.685Z,1.98
2022-09-02T11:20:38.716Z,1.92
2022-09-02T11:23:22.804Z,2.08
2022-09-02T11:26:14.273Z,1.90
2022-09-02T11:28:49.127Z,1.80
2022-09-02T11:31:39.077Z,2.05
2022-09-02T11:34:20.121Z,2.10
2022-09-02T11:36:48.531Z,2.05
2022-09-02T11:39:49.511Z,2.00
2022-09-02T11:45:19.578Z,2.30
2022-09-02T11:47:55.601Z,2.00
2022-09-02T11:50:56.385Z,1.90
2022-09-02T11:53:35.446Z,1.60
2022-09-02T11:56:08.502Z,2.38
2022-09-02T11:58:38.390Z,2.00
2022-09-02T12:01:35.460Z,1.90
2022-09-02T12:07:09.133Z,1.75
2022-09-02T12:09:47.017Z,1.75
2022-09-02T12:12:36.244Z,1.70
2022-09-02T12:15:14.842Z,1.90
2022-09-02T12:17:46.150Z,1.90
2022-09-02T12:20:42.351Z,1.90
2022-09-02T12:23:30.762Z,1.80
2022-09-02T12:26:06.757Z,1.95
2022-09-02T12:28:34.079Z,2.00
2022-09-02T12:31:07.392Z,1.70
2022-09-02T12:33:35.306Z,1.90
2022-09-02T12:36:04.784Z,1.92
2022-09-02T12:38:41.779Z,1.80
2022-09-02T12:41:22.961Z,2.10
2022-09-02T12:44:18.425Z,2.00
2022-09-02T12:46:48.463Z,2.08
2022-09-02T12:49:23.659Z,2.22
2022-09-02T12:52:01.315Z,1.88
2022-09-02T12:54:51.501Z,2.15
2022-09-02T12:57:19.481Z,2.10
2022-09-02T12:59:47.896Z,1.80
2022-09-02T13:02:37.087Z,1.80
2022-09-02T13:05:19.514Z,1.83
2022-09-02T13:08:07.216Z,1.98
2022-09-02T13:10:56.658Z,1.90
2022-09-02T13:13:50.660Z,1.77
2022-09-02T13:16:25.503Z,1.77
2022-09-02T13:19:28.852Z,1.85
2022-09-02T13:22:16.425Z,2.20
2022-09-02T13:25:09.921Z,1.80
2022-09-02T13:28:04.190Z,2.03
2022-09-02T13:30:52.348Z,1.73
2022-09-02T13:33:19.467Z,1.90
2022-09-02T13:35:46.417Z,1.80
2022-09-02T13:38:15.639Z,2.00
2022-09-02T13:40:46.184Z,1.80
2022-09-02T13:43:13.084Z,2.00
2022-09-02T13:45:40.467Z,1.77
2022-09-02T13:48:14.864Z,2.05
2022-09-02T13:50:47.427Z,2.05
2022-09-02T13:54:04.971Z,2.00
2022-09-02T13:56:28.391Z,2.17
2022-09-02T13:58:58.403Z,1.92
2022-09-02T14:01:29.868Z,1.67
2022-09-02T14:03:59.481Z,2.00
2022-09-02T14:06:33.244Z,2.00
2022-09-02T14:09:02.657Z,2.03
2022-09-02T14:11:37.962Z,1.80
2022-09-02T14:14:04.838Z,1.80
2022-09-02T14:16:34.246Z,1.85
2022-09-02T14:19:19.819Z,2.08
2022-09-02T14:21:56.060Z,1.90
2022-09-02T14:24:27.042Z,1.75
2022-09-02T14:26:55.917Z,1.70
2022-09-02T14:29:23.299Z,1.85
2022-09-02T14:32:08.503Z,2.00
2022-09-02T14:34:41.246Z,2.20
2022-09-02T14:37:28.430Z,1.85
2022-09-02T14:40:12.134Z,2.35
2022-09-02T14:42:57.274Z,1.90
2022-09-02T14:45:32.887Z,1.95
2022-09-02T14:48:14.761Z,2.28
2022-09-02T14:50:42.003Z,2.22
2022-09-02T14:53:10.986Z,2.10
2022-09-02T14:55:56.842Z,2.25
2022-09-02T14:58:27.418Z,2.75
2022-09-02T15:00:56.804Z,2.55
2022-09-02T15:03:24.079Z,2.30
2022-09-02T15:05:52.255Z,2.30
2022-09-02T15:08:19.439Z,2.38
2022-09-02T15:10:46.444Z,1.92
2022-09-02T15:13:22.053Z,2.00
2022-09-02T15:15:50.359Z,2.30
2022-09-02T15:18:17.044Z,2.25
2022-09-02T15:20:43.716Z,2.40
2022-09-02T15:23:10.954Z,2.35
2022-09-02T15:25:37.864Z,2.20
2022-09-02T15:28:04.512Z,2.30
2022-09-02T15:30:33.631Z,2.10
2022-09-02T15:33:04.242Z,2.20
2022-09-02T15:35:33.675Z,2.38
2022-09-02T15:38:02.022Z,2.40
2022-09-02T15:40:29.989Z,2.25
2022-09-02T15:42:57.430Z,2.20
2022-09-02T15:45:24.212Z,2.15
2022-09-02T15:47:50.872Z,2.30
2022-09-02T15:50:17.556Z,2.20
2022-09-02T15:52:47.324Z,1.95
2022-09-02T15:55:14.422Z,1.95
2022-09-02T15:57:41.258Z,1.92
2022-09-02T16:00:09.713Z,2.13
2022-09-02T16:02:43.653Z,2.30
2022-09-02T16:05:11.978Z,2.20
2022-09-02T16:07:38.626Z,1.85
2022-09-02T16:10:05.715Z,1.75
2022-09-02T16:12:32.543Z,2.30
2022-09-02T16:14:59.939Z,1.75
2022-09-02T16:17:26.644Z,2.05
2022-09-02T16:19:53.851Z,2.20
2022-09-02T16:22:20.522Z,1.88
2022-09-02T16:24:47.168Z,2.03
2022-09-02T16:27:13.789Z,1.80
2022-09-02T16:29:41.642Z,2.00
2022-09-02T16:32:24.317Z,2.13
2022-09-02T16:34:55.592Z,2.08
2022-09-02T16:37:22.254Z,1.70
2022-09-02T16:39:49.058Z,2.13
2022-09-02T16:42:15.743Z,2.17
2022-09-02T16:44:42.443Z,2.15
2022-09-02T16:47:09.054Z,3.53
2022-09-02T16:49:40.487Z,3.30
2022-09-02T16:52:07.135Z,2.67
2022-09-02T16:54:37.374Z,2.88
2022-09-02T16:57:07.045Z,2.10
2022-09-02T16:59:33.753Z,2.20
2022-09-02T17:02:00.508Z,2.33
2022-09-02T17:04:27.327Z,2.33
2022-09-02T17:06:54.018Z,2.28
2022-09-02T17:09:20.866Z,2.05
2022-09-02T17:11:47.535Z,2.33
2022-09-02T17:14:18.126Z,2.30
2022-09-02T17:16:49.939Z,2.10
2022-09-02T17:19:21.564Z,2.20
2022-09-02T17:21:54.116Z,2.28
2022-09-02T17:24:23.913Z,2.53
2022-09-02T17:26:54.162Z,2.20
2022-09-02T17:32:09.705Z,2.00
2022-09-02T17:34:37.105Z,2.00
2022-09-02T17:37:05.072Z,2.30
2022-09-02T17:39:33.698Z,2.17
2022-09-02T17:42:00.572Z,2.05
2022-09-02T17:44:36.110Z,2.33
2022-09-02T17:47:08.626Z,2.05
2022-09-02T17:49:36.708Z,2.05
2022-09-02T17:52:07.879Z,2.15
2022-09-02T17:54:36.004Z,1.70
2022-09-02T17:57:32.202Z,2.05
2022-09-02T18:00:09.786Z,2.13
2022-09-02T18:02:42.164Z,2.00
2022-09-02T18:05:46.054Z,2.00
2022-09-02T18:11:03.034Z,1.77
2022-09-02T18:13:47.778Z,1.80
2022-09-02T18:19:13.587Z,1.83
2022-09-02T18:22:05.075Z,2.00
2022-09-02T18:24:43.012Z,1.92
2022-09-02T18:27:19.969Z,1.77
2022-09-02T18:29:53.772Z,1.83
2022-09-02T18:32:27.966Z,2.00
2022-09-02T18:35:13.183Z,2.10
2022-09-02T18:37:50.703Z,1.90
2022-09-02T18:40:45.172Z,2.08
2022-09-02T18:43:47.418Z,1.80
2022-09-02T18:46:17.851Z,1.95
2022-09-02T18:48:46.693Z,1.83
2022-09-02T18:51:39.101Z,1.98
2022-09-02T18:54:22.227Z,1.90
2022-09-02T18:56:54.273Z,2.13
2022-09-02T18:59:32.582Z,2.10
2022-09-02T19:02:15.479Z,2.10
2022-09-02T19:04:42.514Z,2.13
2022-09-02T19:07:30.234Z,2.00
2022-09-02T19:10:00.958Z,2.10
2022-09-02T19:12:32.696Z,2.30
2022-09-02T19:15:06.244Z,2.30
2022-09-02T19:17:32.888Z,2.13
2022-09-02T19:19:59.522Z,2.38
2022-09-02T19:22:28.400Z,2.38
2022-09-02T19:25:01.339Z,2.10
2022-09-02T19:27:32.327Z,2.50
2022-09-02T19:30:25.367Z,2.38
2022-09-02T19:32:54.058Z,2.60
2022-09-02T19:35:24.880Z,2.13
2022-09-02T19:37:54.032Z,2.10
2022-09-02T19:40:36.434Z,2.10
2022-09-02T19:43:05.210Z,2.25
2022-09-02T19:45:37.435Z,2.25
2022-09-02T19:48:07.960Z,2.40
2022-09-02T19:50:43.491Z,2.45
2022-09-02T19:53:16.005Z,2.20
2022-09-02T19:58:09.410Z,3.08
2022-09-02T20:00:36.269Z,2.83
2022-09-02T20:03:03.410Z,2.22
2022-09-02T20:05:31.131Z,2.35
2022-09-02T20:07:57.787Z,2.50
2022-09-02T20:10:27.593Z,2.20
2022-09-02T20:12:55.110Z,2.33
2022-09-02T20:15:21.831Z,2.08
2022-09-02T20:17:49.141Z,2.17
2022-09-02T20:20:20.189Z,2.33
2022-09-02T20:22:48.504Z,2.10
2022-09-02T20:25:15.593Z,2.03
2022-09-02T20:27:51.740Z,2.15
2022-09-02T20:30:20.122Z,2.20
2022-09-02T20:32:59.596Z,2.00
2022-09-02T20:35:57.986Z,2.10
2022-09-02T20:38:55.866Z,2.15
2022-09-02T20:44:20.155Z,2.00
2022-09-02T20:47:08.510Z,2.03
2022-09-02T20:49:47.711Z,2.20
2022-09-02T20:52:31.362Z,1.90
2022-09-02T20:55:19.686Z,1.98
2022-09-02T20:58:17.133Z,1.70
2022-09-02T21:01:06.797Z,2.20
2022-09-02T21:03:54.095Z,2.20
2022-09-02T21:06:26.876Z,2.03
2022-09-02T21:08:56.834Z,2.33
2022-09-02T21:11:29.255Z,2.15
2022-09-02T21:14:17.362Z,2.20
2022-09-02T21:16:53.902Z,2.00
2022-09-02T21:19:27.761Z,2.05
2022-09-02T21:21:59.767Z,1.95
2022-09-02T21:24:36.952Z,1.90
2022-09-02T21:27:11.541Z,2.10
2022-09-02T21:30:03.267Z,2.17
2022-09-02T21:32:54.724Z,2.10
2022-09-02T21:35:27.158Z,2.35
2022-09-02T21:38:01.255Z,2.05
2022-09-02T21:40:40.140Z,2.22
2022-09-02T21:45:52.863Z,2.10
2022-09-02T21:48:33.737Z,1.95
2022-09-02T21:51:12.408Z,2.10
2022-09-02T21:54:00.770Z,2.08
2022-09-02T21:56:36.520Z,2.20
2022-09-02T21:59:03.488Z,2.00
2022-09-02T22:01:46.149Z,2.10
2022-09-02T22:04:37.413Z,2.00
2022-09-02T22:07:33.475Z,2.00
2022-09-02T22:10:21.866Z,2.10
2022-09-02T22:12:52.645Z,2.17
2022-09-02T22:15:34.541Z,1.80
2022-09-02T22:18:32.820Z,2.00
2022-09-02T22:21:17.056Z,1.92
2022-09-02T22:23:44.115Z,2.20
2022-09-02T22:26:30.039Z,2.00
2022-09-02T22:29:03.731Z,2.10
2022-09-02T22:31:33.769Z,2.38
2022-09-02T22:34:05.384Z,2.42
2022-09-02T22:36:37.117Z,1.95
2022-09-02T22:39:04.822Z,1.95
2022-09-02T22:41:34.681Z,2.00
2022-09-02T22:44:13.090Z,2.20
2022-09-02T22:47:18.696Z,1.85
2022-09-02T22:50:12.515Z,1.98
2022-09-02T22:52:57.300Z,2.33
2022-09-02T22:55:31.718Z,2.20
2022-09-02T22:58:15.069Z,2.05
2022-09-02T23:00:57.123Z,2.40
2022-09-02T23:03:42.733Z,1.95
2022-09-02T23:06:25.389Z,2.38
2022-09-02T23:08:53.933Z,2.00
2022-09-02T23:11:34.279Z,2.10
2022-09-02T23:14:23.887Z,1.92
2022-09-02T23:17:18.261Z,2.00
2022-09-02T23:20:13.483Z,2.20
2022-09-02T23:23:10.703Z,2.30
2022-09-02T23:25:47.493Z,2.15
2022-09-02T23:28:36.817Z,1.92
2022-09-02T23:31:12.709Z,2.25
2022-09-02T23:33:51.168Z,2.35
2022-09-02T23:36:53.500Z,2.40
2022-09-02T23:39:52.225Z,2.30
2022-09-02T23:42:19.006Z,1.88
2022-09-02T23:44:46.039Z,1.85
2022-09-02T23:47:37.578Z,1.80
2022-09-02T23:52:56.343Z,1.77
2022-09-02T23:55:51.025Z,1.83
2022-09-02T23:58:43.419Z,2.35
